Time;durP1;ratioP1;P1;durP2;ratioP2;P2;SDS_P1;SDS_P2;PMS_P1;PMS_P2;Temp;Humidity;BMP_temperature;BMP_pressure;BME280_temperature;BME280_humidity;BME280_pressure;Samples;Min_cycle;Max_cycle;Signal;HPM_P1;HPM_P2
2023/04/30 00:00:40;;;;;;;9.57;6.68;;;6.80;99.90;;;;;;5080283;28;20448;-34
2023/04/30 00:03:05;;;;;;;8.10;7.15;;;6.80;99.90;;;;;;5087793;28;20101;-34
2023/04/30 00:05:31;;;;;;;9.80;6.85;;;6.70;99.90;;;;;;5085720;28;20040;-36
2023/04/30 00:07:57;;;;;;;9.05;7.10;;;6.70;99.90;;;;;;5088660;28;20397;-36
2023/04/30 00:10:22;;;;;;;10.00;6.30;;;6.60;99.90;;;;;;5088222;28;20122;-36
2023/04/30 00:12:48;;;;;;;9.07;6.60;;;6.60;99.90;;;;;;5088879;28;20047;-34
2023/04/30 00:15:14;;;;;;;9.90;6.85;;;6.60;99.90;;;;;;5092644;28;20174;-37
2023/04/30 00:17:40;;;;;;;11.07;6.38;;;6.50;99.90;;;;;;5090011;28;20138;-35
2023/04/30 00:20:06;;;;;;;11.38;6.40;;;6.50;99.90;;;;;;5092524;28;20097;-35
2023/04/30 00:22:35;;;;;;;8.48;6.60;;;6.50;99.90;;;;;;5084712;28;20529;-34
2023/04/30 00:25:00;;;;;;;10.23;6.53;;;6.50;99.90;;;;;;5092906;28;20286;-34
2023/04/30 00:27:26;;;;;;;10.05;6.60;;;6.50;99.90;;;;;;5089465;28;20371;-35
2023/04/30 00:29:53;;;;;;;10.80;6.70;;;6.40;99.90;;;;;;5091881;28;20032;-34
2023/04/30 00:32:19;;;;;;;7.47;5.82;;;6.40;99.90;;;;;;5089296;28;20600;-35
2023/04/30 00:34:45;;;;;;;11.75;6.75;;;6.40;99.90;;;;;;5090191;28;20119;-35
2023/04/30 00:37:11;;;;;;;10.77;6.65;;;6.30;99.90;;;;;;5075460;28;20055;-34
2023/04/30 00:39:37;;;;;;;9.95;6.32;;;6.30;99.90;;;;;;5090088;28;20081;-37
2023/04/30 00:42:03;;;;;;;10.07;6.55;;;6.30;99.90;;;;;;5088175;28;20440;-35
2023/04/30 00:44:29;;;;;;;9.93;6.55;;;6.30;99.90;;;;;;5084975;28;20037;-38
2023/04/30 00:46:55;;;;;;;9.25;6.65;;;6.30;99.90;;;;;;5092005;28;20583;-34
2023/04/30 00:49:21;;;;;;;8.30;7.10;;;6.30;99.90;;;;;;5086388;28;20044;-34
2023/04/30 00:51:47;;;;;;;11.07;6.82;;;6.20;99.90;;;;;;5089171;28;20032;-34
2023/04/30 00:54:13;;;;;;;13.43;7.82;;;6.20;99.90;;;;;;5090295;28;20044;-35
2023/04/30 00:56:39;;;;;;;10.35;7.90;;;6.20;99.90;;;;;;5089664;28;20048;-34
2023/04/30 00:59:05;;;;;;;12.48;7.25;;;6.20;99.90;;;;;;5090765;28;20040;-34
2023/04/30 01:01:31;;;;;;;10.20;6.85;;;6.10;99.90;;;;;;5091364;28;20050;-34
2023/04/30 01:03:57;;;;;;;12.27;7.28;;;6.10;99.90;;;;;;5099797;28;20044;-34
2023/04/30 01:06:25;;;;;;;11.90;7.63;;;6.00;99.90;;;;;;5086946;28;20133;-34
2023/04/30 01:08:52;;;;;;;10.30;7.25;;;6.00;99.90;;;;;;5091013;28;20425;-34
2023/04/30 01:11:36;;;;;;;10.95;6.97;;;6.00;99.90;;;;;;5070564;28;20040;-34
2023/04/30 01:14:07;;;;;;;13.23;7.03;;;6.00;99.90;;;;;;5085624;28;20044;-41
2023/04/30 01:16:39;;;;;;;10.50;7.28;;;5.90;99.90;;;;;;5087703;28;20477;-35
2023/04/30 01:19:16;;;;;;;9.75;6.88;;;5.90;99.90;;;;;;5085782;28;20127;-34
2023/04/30 01:21:42;;;;;;;10.73;7.95;;;5.90;99.90;;;;;;5091246;28;20048;-37
2023/04/30 01:24:36;;;;;;;11.27;7.25;;;5.90;99.90;;;;;;5091641;28;20119;-34
2023/04/30 01:27:28;;;;;;;11.40;7.57;;;5.80;99.90;;;;;;5087139;28;20067;-34
2023/04/30 01:29:55;;;;;;;10.98;8.30;;;5.80;99.90;;;;;;5099691;28;20043;-34
2023/04/30 01:32:21;;;;;;;8.38;7.40;;;5.70;99.90;;;;;;5088324;28;20691;-34
2023/04/30 01:34:47;;;;;;;12.23;7.65;;;5.80;99.90;;;;;;5082441;28;20385;-35
2023/04/30 01:37:48;;;;;;;9.68;7.18;;;5.70;99.90;;;;;;5088522;28;20114;-36
2023/04/30 01:40:58;;;;;;;13.45;8.57;;;5.70;99.90;;;;;;5082907;28;20032;-35
2023/04/30 01:43:46;;;;;;;10.88;7.40;;;5.70;99.90;;;;;;5080340;28;20108;-34
2023/04/30 01:46:28;;;;;;;9.90;7.22;;;5.60;99.90;;;;;;5086057;28;20059;-34
2023/04/30 01:49:29;;;;;;;11.40;6.93;;;5.60;99.90;;;;;;5085744;28;20032;-34
2023/04/30 01:52:16;;;;;;;11.73;7.53;;;5.60;99.90;;;;;;5085916;28;20416;-34
2023/04/30 01:54:42;;;;;;;11.88;7.80;;;5.50;99.90;;;;;;5091079;28;20036;-35
2023/04/30 01:57:17;;;;;;;14.68;8.55;;;5.50;99.90;;;;;;5081102;28;20052;-41
2023/04/30 01:59:44;;;;;;;11.13;8.32;;;5.50;99.90;;;;;;5074158;28;20030;-34
2023/04/30 02:02:09;;;;;;;12.38;8.07;;;5.50;99.90;;;;;;5086953;28;20076;-40
2023/04/30 02:04:35;;;;;;;10.25;8.10;;;5.40;99.90;;;;;;5085083;28;20109;-35
2023/04/30 02:07:01;;;;;;;9.07;7.13;;;5.40;99.90;;;;;;5082902;28;20139;-34
2023/04/30 02:09:26;;;;;;;11.63;8.02;;;5.40;99.90;;;;;;5086549;28;20401;-34
2023/04/30 02:11:52;;;;;;;11.80;7.90;;;5.40;99.90;;;;;;5081750;28;20093;-34
2023/04/30 02:14:18;;;;;;;11.20;7.13;;;5.40;99.90;;;;;;5087830;28;20040;-35
2023/04/30 02:16:43;;;;;;;9.75;6.90;;;5.30;99.90;;;;;;5082330;28;20040;-35
2023/04/30 02:19:10;;;;;;;12.77;7.88;;;5.30;99.90;;;;;;5087543;28;20569;-34
2023/04/30 02:21:35;;;;;;;11.82;7.20;;;5.20;99.90;;;;;;5090450;28;20520;-34
2023/04/30 02:24:01;;;;;;;9.52;7.55;;;5.30;99.90;;;;;;5073059;28;20040;-34
2023/04/30 02:26:27;;;;;;;10.90;7.95;;;5.20;99.90;;;;;;5083505;28;20086;-34
2023/04/30 02:28:52;;;;;;;12.45;7.13;;;5.20;99.90;;;;;;5088537;28;20035;-34
2023/04/30 02:31:18;;;;;;;9.68;7.18;;;5.10;99.90;;;;;;5085976;28;20397;-38
2023/04/30 02:33:44;;;;;;;12.00;8.02;;;5.10;99.90;;;;;;5084364;28;20068;-35
2023/04/30 02:36:09;;;;;;;12.45;7.88;;;5.10;99.90;;;;;;5089486;28;20035;-34
2023/04/30 02:38:35;;;;;;;9.30;7.68;;;5.10;99.90;;;;;;5072180;28;20047;-34
2023/04/30 02:41:02;;;;;;;12.82;8.80;;;5.00;99.90;;;;;;5087283;28;20086;-35
2023/04/30 02:43:27;;;;;;;13.02;8.15;;;5.10;99.90;;;;;;5087998;28;20505;-34
2023/04/30 02:45:53;;;;;;;9.43;7.20;;;5.00;99.90;;;;;;5070313;28;20194;-34
2023/04/30 02:48:19;;;;;;;10.57;8.05;;;5.00;99.90;;;;;;5088452;28;20135;-34
2023/04/30 02:50:45;;;;;;;9.98;7.97;;;4.90;99.90;;;;;;5089884;28;20549;-36
2023/04/30 02:53:10;;;;;;;13.68;8.93;;;4.90;99.90;;;;;;5089251;28;20203;-35
2023/04/30 02:55:36;;;;;;;11.98;7.72;;;5.00;99.90;;;;;;5089888;28;20039;-34
2023/04/30 02:58:02;;;;;;;11.40;7.90;;;4.90;99.90;;;;;;5083044;28;20048;-34
2023/04/30 03:00:27;;;;;;;11.02;9.02;;;4.90;99.90;;;;;;5080037;28;20032;-34
2023/04/30 03:02:53;;;;;;;10.48;8.27;;;4.80;99.90;;;;;;5086326;28;20040;-36
2023/04/30 03:05:19;;;;;;;12.27;7.47;;;4.90;99.90;;;;;;5086753;28;20378;-34
2023/04/30 03:07:44;;;;;;;15.93;8.77;;;4.80;99.90;;;;;;5067623;28;20074;-34
2023/04/30 03:10:10;;;;;;;8.98;7.43;;;4.80;99.90;;;;;;5088442;28;20511;-35
2023/04/30 03:12:36;;;;;;;12.70;8.45;;;4.80;99.90;;;;;;5089221;28;20032;-35
2023/04/30 03:15:02;;;;;;;15.02;9.25;;;4.80;99.90;;;;;;5089428;28;20038;-39
2023/04/30 03:17:28;;;;;;;11.68;7.97;;;4.80;99.90;;;;;;5088259;28;20131;-36
2023/04/30 03:19:53;;;;;;;13.55;8.43;;;4.80;99.90;;;;;;5083719;28;20036;-35
2023/04/30 03:22:22;;;;;;;11.57;8.00;;;4.70;99.90;;;;;;5088138;28;20119;-34
2023/04/30 03:24:48;;;;;;;10.98;8.00;;;4.80;99.90;;;;;;5089158;28;20044;-35
2023/04/30 03:27:15;;;;;;;12.38;8.80;;;4.80;99.90;;;;;;5089272;28;20496;-36
2023/04/30 03:29:41;;;;;;;13.43;9.25;;;4.70;99.90;;;;;;5088903;28;20055;-34
2023/04/30 03:32:07;;;;;;;10.75;7.70;;;4.70;99.90;;;;;;5089118;28;20040;-34
2023/04/30 03:34:32;;;;;;;9.05;7.57;;;4.60;99.90;;;;;;5088709;28;20398;-34
2023/04/30 03:37:02;;;;;;;9.77;7.10;;;4.50;99.90;;;;;;5088367;28;20039;-34
2023/04/30 03:39:28;;;;;;;8.32;6.53;;;4.60;99.90;;;;;;5089073;28;20123;-35
2023/04/30 03:41:54;;;;;;;10.57;7.07;;;4.50;99.90;;;;;;5082780;28;20161;-35
2023/04/30 03:44:19;;;;;;;7.88;6.75;;;4.50;99.90;;;;;;5065666;28;20056;-34
2023/04/30 03:46:45;;;;;;;9.68;7.15;;;4.50;99.90;;;;;;5083802;28;20036;-34
2023/04/30 03:49:11;;;;;;;12.02;7.97;;;4.50;99.90;;;;;;5082475;28;20455;-34
2023/04/30 03:51:40;;;;;;;11.65;8.52;;;4.50;99.90;;;;;;5093607;28;20040;-34
2023/04/30 03:54:06;;;;;;;13.25;9.40;;;4.50;99.90;;;;;;5075136;28;20052;-34
2023/04/30 03:56:33;;;;;;;12.30;8.55;;;4.40;99.90;;;;;;5091727;28;20036;-34
2023/04/30 03:58:59;;;;;;;11.07;7.85;;;4.40;99.90;;;;;;5092677;28;20051;-36
2023/04/30 04:01:25;;;;;;;11.95;9.40;;;4.40;99.90;;;;;;5092313;28;20093;-34
2023/04/30 04:03:52;;;;;;;10.85;8.48;;;4.50;99.90;;;;;;5092679;28;20044;-34
2023/04/30 04:06:18;;;;;;;12.00;8.85;;;4.40;99.90;;;;;;5083749;28;20075;-34
2023/04/30 04:08:43;;;;;;;10.07;8.57;;;4.40;99.90;;;;;;5088861;28;20067;-34
2023/04/30 04:11:10;;;;;;;9.52;8.40;;;4.30;99.90;;;;;;5084917;28;20494;-35
2023/04/30 04:13:36;;;;;;;12.77;8.95;;;4.50;99.90;;;;;;5090970;28;20064;-34
2023/04/30 04:16:01;;;;;;;12.23;8.43;;;4.40;99.90;;;;;;5092698;28;20072;-35
2023/04/30 04:18:29;;;;;;;8.77;7.88;;;4.40;99.90;;;;;;5091299;28;20032;-35
2023/04/30 04:20:55;;;;;;;12.38;8.10;;;4.30;99.90;;;;;;5093051;28;20043;-36
2023/04/30 04:23:21;;;;;;;9.43;7.53;;;4.40;99.90;;;;;;5091336;28;20028;-35
2023/04/30 04:25:51;;;;;;;9.65;7.63;;;4.30;99.90;;;;;;5092713;28;20482;-35
2023/04/30 04:28:16;;;;;;;9.18;7.55;;;4.50;99.90;;;;;;5090665;28;20043;-38
2023/04/30 04:30:42;;;;;;;9.43;8.38;;;4.40;99.90;;;;;;5092189;28;20028;-34
2023/04/30 04:33:09;;;;;;;9.15;8.23;;;4.40;99.90;;;;;;5089359;28;20043;-34
2023/04/30 04:35:35;;;;;;;9.65;8.20;;;4.50;99.90;;;;;;5089317;28;20041;-34
2023/04/30 04:38:00;;;;;;;11.75;7.75;;;4.50;99.90;;;;;;5092678;28;20036;-34
2023/04/30 04:40:26;;;;;;;10.80;9.07;;;4.50;99.90;;;;;;5093563;28;20040;-37
2023/04/30 04:42:52;;;;;;;13.45;9.05;;;4.60;99.90;;;;;;5085251;28;20523;-39
2023/04/30 04:45:19;;;;;;;10.85;8.57;;;4.70;99.90;;;;;;5095023;28;20067;-35
2023/04/30 04:47:45;;;;;;;13.07;10.35;;;4.80;99.90;;;;;;5111038;28;20098;-36
2023/04/30 04:50:12;;;;;;;13.55;10.32;;;5.00;99.90;;;;;;5102253;28;20047;-35
2023/04/30 04:52:38;;;;;;;17.25;11.38;;;5.10;99.90;;;;;;5102916;28;20044;-34
2023/04/30 04:55:04;;;;;;;14.77;10.38;;;5.20;99.90;;;;;;5093219;28;20048;-35
2023/04/30 04:57:30;;;;;;;14.50;10.73;;;5.30;99.90;;;;;;5093105;28;20034;-36
2023/04/30 04:59:56;;;;;;;14.70;10.48;;;5.50;99.90;;;;;;5102935;28;20028;-36
2023/04/30 05:02:22;;;;;;;15.90;11.43;;;5.60;99.90;;;;;;5108439;28;20032;-37
2023/04/30 05:04:49;;;;;;;14.30;10.60;;;5.60;99.90;;;;;;5103645;28;20036;-36
2023/04/30 05:07:16;;;;;;;14.00;10.98;;;5.80;99.90;;;;;;5093198;28;20101;-35
2023/04/30 05:09:43;;;;;;;16.98;10.30;;;5.70;99.90;;;;;;5092702;28;20067;-38
2023/04/30 05:12:09;;;;;;;15.90;12.07;;;6.00;99.90;;;;;;5099161;28;20069;-37
2023/04/30 05:14:36;;;;;;;16.23;11.32;;;5.90;99.90;;;;;;5113661;28;20036;-35
2023/04/30 05:17:02;;;;;;;18.35;11.60;;;6.10;99.90;;;;;;5113357;28;20524;-36
2023/04/30 05:19:27;;;;;;;13.85;10.38;;;6.10;99.90;;;;;;5097736;28;20036;-36
2023/04/30 05:21:53;;;;;;;16.00;11.57;;;6.20;99.90;;;;;;5092670;28;20051;-36
2023/04/30 05:24:19;;;;;;;13.13;10.30;;;6.30;99.90;;;;;;5092829;28;20028;-36
2023/04/30 05:26:45;;;;;;;17.48;10.13;;;6.50;99.90;;;;;;5096810;28;20047;-36
2023/04/30 05:29:11;;;;;;;14.88;10.77;;;6.50;99.90;;;;;;5092618;28;20036;-35
2023/04/30 05:31:37;;;;;;;13.70;10.57;;;6.60;99.90;;;;;;5106753;28;20121;-35
2023/04/30 05:34:02;;;;;;;21.05;11.10;;;6.70;99.90;;;;;;5092477;28;20071;-37
2023/04/30 05:36:28;;;;;;;17.42;10.55;;;6.70;99.90;;;;;;5107668;28;20564;-38
2023/04/30 05:38:54;;;;;;;15.10;9.98;;;6.70;99.90;;;;;;5096943;28;20075;-35
2023/04/30 05:41:20;;;;;;;13.50;10.20;;;6.80;99.90;;;;;;5105731;28;20143;-35
2023/04/30 05:43:46;;;;;;;13.98;10.10;;;6.80;99.90;;;;;;5098489;28;20527;-35
2023/04/30 05:46:12;;;;;;;14.77;10.93;;;6.70;99.90;;;;;;5101295;28;20036;-35
2023/04/30 05:48:38;;;;;;;13.07;10.35;;;6.70;99.90;;;;;;5102705;28;20092;-36
2023/04/30 05:51:07;;;;;;;15.25;10.13;;;6.70;99.90;;;;;;5110619;28;20485;-36
2023/04/30 05:53:33;;;;;;;16.48;10.30;;;6.70;99.90;;;;;;5092360;28;20400;-35
2023/04/30 05:55:59;;;;;;;18.05;10.77;;;6.80;99.90;;;;;;5075242;28;20130;-35
2023/04/30 05:58:24;;;;;;;17.30;10.45;;;6.90;99.90;;;;;;5093310;28;20085;-35
2023/04/30 06:00:51;;;;;;;14.52;10.93;;;6.90;99.90;;;;;;5092066;28;20044;-35
2023/04/30 06:03:19;;;;;;;12.63;9.80;;;7.00;99.90;;;;;;5091797;28;20089;-38
2023/04/30 06:05:46;;;;;;;17.48;10.52;;;7.00;99.90;;;;;;5092239;28;20445;-38
2023/04/30 06:08:12;;;;;;;15.10;10.75;;;7.10;99.90;;;;;;5091971;28;20408;-36
2023/04/30 06:10:38;;;;;;;13.13;9.50;;;7.00;99.90;;;;;;5091366;28;20036;-34
2023/04/30 06:13:05;;;;;;;12.00;8.75;;;7.20;99.90;;;;;;5091481;28;20040;-33
2023/04/30 06:15:31;;;;;;;14.35;8.52;;;7.20;99.90;;;;;;5090724;28;20043;-36
2023/04/30 06:17:57;;;;;;;18.17;8.82;;;7.30;99.90;;;;;;5090040;28;20428;-39
2023/04/30 06:20:23;;;;;;;13.45;8.57;;;7.40;99.90;;;;;;5086284;28;20044;-37
2023/04/30 06:22:49;;;;;;;11.07;8.15;;;7.50;99.90;;;;;;5088268;28;20518;-38
2023/04/30 06:25:14;;;;;;;14.10;7.68;;;7.60;99.90;;;;;;5086114;28;20113;-36
2023/04/30 06:27:40;;;;;;;13.93;8.57;;;7.70;99.90;;;;;;5072688;28;20044;-36
2023/04/30 06:30:07;;;;;;;12.95;8.07;;;7.70;99.90;;;;;;5087498;28;20093;-37
2023/04/30 06:32:33;;;;;;;15.07;8.20;;;7.70;99.90;;;;;;5082484;28;20040;-37
2023/04/30 06:34:59;;;;;;;11.98;7.28;;;7.80;99.90;;;;;;5087630;28;20028;-37
2023/04/30 06:37:25;;;;;;;10.82;7.10;;;7.90;99.90;;;;;;5101267;28;20032;-35
2023/04/30 06:39:51;;;;;;;15.27;7.30;;;8.00;99.90;;;;;;5090528;28;20655;-36
2023/04/30 06:42:17;;;;;;;13.05;7.40;;;8.00;99.90;;;;;;5089859;28;20123;-40
2023/04/30 06:44:42;;;;;;;10.43;6.97;;;8.10;99.90;;;;;;5086965;28;20093;-37
2023/04/30 06:47:08;;;;;;;17.40;6.95;;;8.10;99.90;;;;;;5087402;28;20040;-38
2023/04/30 06:49:34;;;;;;;11.73;6.55;;;8.20;99.90;;;;;;5087302;28;20028;-36
2023/04/30 06:52:00;;;;;;;9.70;5.70;;;8.30;99.90;;;;;;5089782;28;20028;-36
2023/04/30 06:54:26;;;;;;;12.68;5.75;;;8.20;99.90;;;;;;5088718;28;20397;-38
2023/04/30 06:56:52;;;;;;;8.32;3.97;;;8.30;99.90;;;;;;5086705;28;20040;-37
2023/04/30 06:59:18;;;;;;;8.68;4.00;;;8.30;99.90;;;;;;5085841;28;20532;-36
2023/04/30 07:01:44;;;;;;;8.05;4.63;;;8.40;99.90;;;;;;5081926;28;20142;-36
2023/04/30 07:04:09;;;;;;;10.20;5.20;;;8.60;99.90;;;;;;5081690;28;20044;-36
2023/04/30 07:06:36;;;;;;;10.50;4.53;;;8.70;99.90;;;;;;5089114;28;20039;-36
2023/04/30 07:09:02;;;;;;;13.18;4.22;;;8.70;99.90;;;;;;5089317;28;20032;-36
2023/04/30 07:11:28;;;;;;;9.23;4.22;;;8.80;99.90;;;;;;5088008;28;20036;-36
2023/04/30 07:13:53;;;;;;;8.52;3.53;;;8.80;99.90;;;;;;5089283;28;20044;-36
2023/04/30 07:16:19;;;;;;;9.55;4.18;;;9.00;99.90;;;;;;5089535;28;20133;-36
2023/04/30 07:18:48;;;;;;;8.35;3.88;;;9.00;99.90;;;;;;5084169;28;20501;-36
2023/04/30 07:21:14;;;;;;;11.68;4.80;;;9.30;99.90;;;;;;5080593;28;20440;-36
2023/04/30 07:23:40;;;;;;;12.15;4.72;;;9.40;99.90;;;;;;5065803;28;20039;-35
2023/04/30 07:26:06;;;;;;;8.43;4.60;;;9.50;99.90;;;;;;5105966;28;20119;-40
2023/04/30 07:28:32;;;;;;;11.02;4.38;;;9.60;99.90;;;;;;5088161;28;20032;-36
2023/04/30 07:30:57;;;;;;;11.02;4.57;;;9.80;99.90;;;;;;5088835;28;20047;-40
2023/04/30 07:33:23;;;;;;;11.50;4.90;;;10.00;99.90;;;;;;5105051;28;20040;-36
2023/04/30 07:35:51;;;;;;;10.70;4.80;;;10.00;99.90;;;;;;5086817;28;20045;-37
2023/04/30 07:38:17;;;;;;;9.80;4.38;;;10.20;99.90;;;;;;5106253;28;20031;-36
2023/04/30 07:40:43;;;;;;;9.15;4.50;;;10.40;99.90;;;;;;5089240;28;20036;-37
2023/04/30 07:43:10;;;;;;;12.40;4.97;;;10.40;99.90;;;;;;5089049;28;20097;-36
2023/04/30 07:45:36;;;;;;;10.45;4.78;;;10.60;99.90;;;;;;5089489;28;20038;-36
2023/04/30 07:48:02;;;;;;;9.63;4.90;;;10.70;99.90;;;;;;5088847;28;20456;-36
2023/04/30 07:50:32;;;;;;;9.02;4.60;;;11.00;99.90;;;;;;5088916;28;20362;-36
2023/04/30 07:52:58;;;;;;;10.02;4.88;;;11.20;99.90;;;;;;5088780;28;20139;-36
2023/04/30 07:55:24;;;;;;;6.22;3.78;;;11.50;99.90;;;;;;5106630;28;20075;-36
2023/04/30 07:57:50;;;;;;;7.22;4.35;;;11.70;99.90;;;;;;5089136;28;20184;-37
2023/04/30 08:00:16;;;;;;;12.40;4.95;;;11.90;99.90;;;;;;5089130;28;20044;-37
2023/04/30 08:02:47;;;;;;;9.32;4.38;;;12.00;99.90;;;;;;5089017;28;20066;-37
2023/04/30 08:05:12;;;;;;;11.02;4.28;;;12.10;99.90;;;;;;5084784;28;20040;-36
2023/04/30 08:07:38;;;;;;;9.85;4.93;;;12.00;99.90;;;;;;5089330;28;20497;-36
2023/04/30 08:10:04;;;;;;;7.72;4.47;;;12.00;99.90;;;;;;5088167;28;20115;-34
2023/04/30 08:12:30;;;;;;;8.73;4.35;;;12.40;99.90;;;;;;5085277;28;20066;-36
2023/04/30 08:15:03;;;;;;;10.77;4.72;;;12.70;99.90;;;;;;5084194;28;20034;-40
2023/04/30 08:17:30;;;;;;;10.55;4.78;;;12.80;99.90;;;;;;5079920;28;20388;-36
2023/04/30 08:19:56;;;;;;;8.68;4.30;;;13.00;99.90;;;;;;5086770;28;20028;-37
2023/04/30 08:22:22;;;;;;;10.05;4.40;;;13.10;99.90;;;;;;5086673;28;20036;-36
2023/04/30 08:24:48;;;;;;;7.22;4.70;;;13.00;99.90;;;;;;5083625;28;20044;-38
2023/04/30 08:27:15;;;;;;;12.32;4.35;;;12.90;99.90;;;;;;5086097;28;20065;-38
2023/04/30 08:29:40;;;;;;;8.25;4.63;;;13.10;99.90;;;;;;5085869;28;20039;-37
2023/04/30 08:32:07;;;;;;;7.22;4.60;;;13.30;99.90;;;;;;5086649;28;20397;-39
2023/04/30 08:34:33;;;;;;;8.35;4.25;;;13.50;99.90;;;;;;5089515;28;20046;-39
2023/04/30 08:37:00;;;;;;;9.50;4.10;;;13.50;99.90;;;;;;5090308;28;20032;-36
2023/04/30 08:39:26;;;;;;;7.28;3.70;;;13.20;99.90;;;;;;5092151;28;20043;-38
2023/04/30 08:41:56;;;;;;;6.43;3.97;;;13.00;99.90;;;;;;5088716;28;20041;-37
2023/04/30 08:44:22;;;;;;;9.48;4.10;;;13.10;99.90;;;;;;5091454;28;20044;-37
2023/04/30 08:46:55;;;;;;;9.98;4.10;;;13.60;99.90;;;;;;5107334;28;20119;-37
2023/04/30 08:49:22;;;;;;;8.02;3.97;;;13.80;99.90;;;;;;5092063;28;20036;-38
2023/04/30 08:51:48;;;;;;;8.88;4.03;;;14.30;99.90;;;;;;5092397;28;20043;-36
2023/04/30 08:54:15;;;;;;;10.13;4.00;;;14.40;99.90;;;;;;5108742;28;20036;-37
2023/04/30 08:56:41;;;;;;;9.63;4.70;;;14.50;99.90;;;;;;5091593;28;20071;-36
2023/04/30 08:59:07;;;;;;;8.73;4.43;;;14.70;99.90;;;;;;5089584;28;20136;-37
2023/04/30 09:01:33;;;;;;;6.85;4.05;;;14.90;99.90;;;;;;5090065;28;20040;-36
2023/04/30 09:04:02;;;;;;;10.48;4.25;;;14.70;99.90;;;;;;5107371;28;20481;-37
2023/04/30 09:06:27;;;;;;;8.70;4.10;;;15.10;99.90;;;;;;5090135;28;20347;-37
2023/04/30 09:08:53;;;;;;;6.82;4.65;;;15.40;99.90;;;;;;5090745;28;20067;-40
2023/04/30 09:11:20;;;;;;;11.45;4.00;;;15.60;99.90;;;;;;5089746;28;20489;-37
2023/04/30 09:13:46;;;;;;;9.15;3.92;;;16.00;99.90;;;;;;5091653;28;20059;-37
2023/04/30 09:16:12;;;;;;;9.23;3.53;;;15.70;99.90;;;;;;5086901;28;20036;-38
2023/04/30 09:18:38;;;;;;;9.25;3.95;;;16.10;99.90;;;;;;5091480;28;20128;-39
2023/04/30 09:21:07;;;;;;;9.75;3.60;;;16.00;99.90;;;;;;5091695;28;20039;-37
2023/04/30 09:23:32;;;;;;;10.93;4.20;;;16.30;99.90;;;;;;5091069;28;20040;-37
2023/04/30 09:25:59;;;;;;;6.88;3.75;;;16.80;99.90;;;;;;5092178;28;20115;-38
2023/04/30 09:28:27;;;;;;;9.68;3.90;;;17.00;99.90;;;;;;5091610;28;20077;-37
2023/04/30 09:30:55;;;;;;;8.25;3.83;;;17.10;99.90;;;;;;5104630;28;20054;-35
2023/04/30 09:33:22;;;;;;;5.90;3.45;;;17.60;99.90;;;;;;5069886;28;20085;-41
2023/04/30 09:35:48;;;;;;;9.48;3.75;;;17.20;99.90;;;;;;5093124;28;20079;-35
2023/04/30 09:38:28;;;;;;;7.57;3.50;;;17.70;99.90;;;;;;5091684;28;20036;-36
2023/04/30 09:40:56;;;;;;;6.25;3.30;;;17.90;99.90;;;;;;5079475;28;20097;-35
2023/04/30 09:43:22;;;;;;;6.60;3.55;;;18.30;99.90;;;;;;5071331;28;20044;-35
2023/04/30 09:45:50;;;;;;;7.30;4.03;;;18.20;99.90;;;;;;5106877;28;20404;-35
2023/04/30 09:48:20;;;;;;;9.00;3.80;;;18.30;99.90;;;;;;5105300;28;20038;-35
2023/04/30 09:50:48;;;;;;;7.20;3.47;;;18.20;99.90;;;;;;5092301;28;20093;-35
2023/04/30 09:53:16;;;;;;;9.98;4.00;;;18.50;99.90;;;;;;5092191;28;20082;-35
2023/04/30 09:55:45;;;;;;;6.53;3.35;;;18.50;99.90;;;;;;5086725;28;20079;-34
2023/04/30 09:58:12;;;;;;;9.57;3.88;;;18.60;99.90;;;;;;5060005;28;20098;-34
2023/04/30 10:00:38;;;;;;;6.43;3.45;;;18.50;99.90;;;;;;5091983;28;20047;-34
2023/04/30 10:03:09;;;;;;;5.45;3.67;;;19.00;99.90;;;;;;5094700;28;20126;-35
2023/04/30 10:05:46;;;;;;;5.68;3.60;;;18.80;99.90;;;;;;5095700;28;20040;-35
2023/04/30 10:08:29;;;;;;;7.97;3.70;;;19.20;99.10;;;;;;5088911;28;20093;-34
2023/04/30 10:11:02;;;;;;;7.32;3.58;;;19.40;96.90;;;;;;5080605;28;20036;-35
2023/04/30 10:13:52;;;;;;;7.63;3.47;;;19.60;93.80;;;;;;5079102;28;20032;-34
2023/04/30 10:16:59;;;;;;;6.30;3.10;;;19.70;92.40;;;;;;5091057;28;20646;-35
2023/04/30 10:19:33;;;;;;;6.57;3.35;;;20.10;95.00;;;;;;5091733;28;20044;-35
2023/04/30 10:22:00;;;;;;;6.47;3.50;;;20.00;85.90;;;;;;5093191;28;20124;-35
2023/04/30 10:24:27;;;;;;;6.45;3.35;;;20.20;92.10;;;;;;5105274;28;20067;-36
2023/04/30 10:26:56;;;;;;;6.22;3.28;;;20.30;85.60;;;;;;5091792;28;20039;-35
2023/04/30 10:29:21;;;;;;;5.75;3.22;;;20.20;83.40;;;;;;5086699;28;20035;-35
2023/04/30 10:31:49;;;;;;;5.93;2.85;;;20.10;85.90;;;;;;5108165;28;20093;-35
2023/04/30 10:34:58;;;;;;;5.68;3.20;;;20.60;88.60;;;;;;5092475;28;20040;-35
2023/04/30 10:37:36;;;;;;;6.53;2.95;;;20.50;81.10;;;;;;5071154;28;20045;-35
2023/04/30 10:40:04;;;;;;;5.25;3.70;;;20.90;81.10;;;;;;5072866;28;20048;-35
2023/04/30 10:42:48;;;;;;;10.85;3.78;;;20.60;78.80;;;;;;5091179;28;20040;-36
2023/04/30 10:45:19;;;;;;;6.35;2.97;;;20.50;75.80;;;;;;5090928;28;20525;-37
2023/04/30 10:47:45;;;;;;;5.00;2.97;;;20.90;78.60;;;;;;5090947;28;20047;-38
2023/04/30 10:50:12;;;;;;;5.75;2.70;;;21.00;77.50;;;;;;5074346;28;20075;-40
2023/04/30 10:52:38;;;;;;;6.18;2.88;;;21.60;77.30;;;;;;5091454;28;20043;-35
2023/04/30 10:55:08;;;;;;;6.35;3.00;;;21.20;77.00;;;;;;5091091;28;20052;-37
2023/04/30 10:57:42;;;;;;;5.90;3.28;;;21.60;76.20;;;;;;5088755;28;20048;-37
2023/04/30 11:00:13;;;;;;;5.65;2.70;;;21.50;75.30;;;;;;5091030;28;20040;-35
2023/04/30 11:02:42;;;;;;;5.43;2.42;;;21.80;75.30;;;;;;5098231;28;20044;-37
2023/04/30 11:05:16;;;;;;;6.05;2.90;;;21.90;74.70;;;;;;5099023;28;20052;-39
2023/04/30 11:08:12;;;;;;;4.72;2.88;;;21.90;72.80;;;;;;5086560;28;20075;-37
2023/04/30 11:10:37;;;;;;;3.65;2.20;;;21.90;72.80;;;;;;5055350;28;20115;-36
2023/04/30 11:13:09;;;;;;;5.13;2.70;;;22.20;73.10;;;;;;5100312;28;20083;-36
2023/04/30 11:15:41;;;;;;;4.65;2.47;;;22.60;73.40;;;;;;5090893;28;20111;-37
2023/04/30 11:18:07;;;;;;;4.85;2.55;;;23.20;72.00;;;;;;5090780;28;20143;-38
2023/04/30 11:20:43;;;;;;;6.03;2.40;;;22.60;71.00;;;;;;5085676;28;20554;-37
2023/04/30 11:23:13;;;;;;;3.92;2.50;;;23.30;70.20;;;;;;5066427;28;20043;-39
2023/04/30 11:25:47;;;;;;;3.83;2.33;;;23.20;70.30;;;;;;5093447;28;20119;-41
2023/04/30 11:28:20;;;;;;;6.75;2.25;;;22.90;68.70;;;;;;5111012;22;20053;-35
2023/04/30 11:30:58;;;;;;;5.03;2.47;;;23.10;68.70;;;;;;5098133;28;20115;-34
2023/04/30 11:33:29;;;;;;;5.85;2.53;;;22.90;67.30;;;;;;5087577;28;20063;-33
2023/04/30 11:36:01;;;;;;;4.03;2.25;;;22.90;69.10;;;;;;5081899;28;20040;-34
2023/04/30 11:38:41;;;;;;;5.18;2.25;;;23.70;68.50;;;;;;5079888;28;20127;-35
2023/04/30 11:41:13;;;;;;;3.72;2.08;;;23.20;67.00;;;;;;5078301;28;20063;-34
2023/04/30 11:43:42;;;;;;;4.68;2.60;;;23.70;67.40;;;;;;5072223;28;20505;-34
2023/04/30 11:46:14;;;;;;;5.13;2.45;;;23.60;66.70;;;;;;5083445;28;20116;-35
2023/04/30 11:48:58;;;;;;;3.60;2.10;;;24.20;68.10;;;;;;5085638;28;20047;-34
2023/04/30 11:51:30;;;;;;;2.80;2.13;;;25.00;67.50;;;;;;5082756;28;20059;-33
2023/04/30 11:54:20;;;;;;;3.45;2.13;;;24.90;66.90;;;;;;5078052;22;20036;-33
2023/04/30 11:56:49;;;;;;;3.45;2.17;;;24.80;65.90;;;;;;5066808;28;20044;-35
2023/04/30 11:59:17;;;;;;;3.00;2.10;;;25.00;66.10;;;;;;5065156;28;20045;-36
2023/04/30 12:01:48;;;;;;;4.25;2.47;;;25.80;66.20;;;;;;5070597;28;20042;-33
2023/04/30 12:04:18;;;;;;;2.90;1.98;;;25.80;65.10;;;;;;5064585;28;20429;-34
2023/04/30 12:06:44;;;;;;;3.28;1.85;;;25.80;65.00;;;;;;5048894;28;20032;-33
2023/04/30 12:09:19;;;;;;;2.58;2.05;;;25.60;64.40;;;;;;5068723;28;20098;-33
2023/04/30 12:11:49;;;;;;;6.18;2.03;;;25.70;64.10;;;;;;5073054;28;20039;-33
2023/04/30 12:14:24;;;;;;;2.45;2.25;;;25.60;64.10;;;;;;5066337;28;20045;-35
2023/04/30 12:16:54;;;;;;;3.78;2.30;;;25.80;64.30;;;;;;5086600;22;20052;-34
2023/04/30 12:19:24;;;;;;;3.25;2.25;;;26.30;64.10;;;;;;5071468;28;20071;-33
2023/04/30 12:22:02;;;;;;;3.92;2.05;;;26.00;63.30;;;;;;5063128;28;20485;-34
2023/04/30 12:24:32;;;;;;;4.65;2.17;;;25.90;62.10;;;;;;5055540;28;20032;-34
2023/04/30 12:27:04;;;;;;;4.93;2.47;;;26.30;62.60;;;;;;5039160;28;20036;-34
2023/04/30 12:29:46;;;;;;;4.05;2.20;;;25.90;61.30;;;;;;5071530;28;20475;-33
2023/04/30 12:32:24;;;;;;;4.07;2.20;;;26.00;60.70;;;;;;5053845;28;20130;-33
2023/04/30 12:35:00;;;;;;;3.72;2.10;;;26.30;60.00;;;;;;5056238;28;20090;-33
2023/04/30 12:37:26;;;;;;;4.07;1.90;;;26.40;59.70;;;;;;5068368;28;20662;-36
2023/04/30 12:39:54;;;;;;;3.92;2.00;;;26.70;60.10;;;;;;5051906;28;20143;-34
2023/04/30 12:42:20;;;;;;;2.50;1.92;;;26.90;59.90;;;;;;5071158;28;20421;-34
2023/04/30 12:44:49;;;;;;;2.90;1.98;;;26.60;58.60;;;;;;5071854;28;20037;-34
2023/04/30 12:47:15;;;;;;;2.90;1.70;;;26.40;58.90;;;;;;5076156;28;20504;-34
2023/04/30 12:49:45;;;;;;;2.50;1.85;;;27.20;58.40;;;;;;5070256;28;20032;-34
2023/04/30 12:52:13;;;;;;;3.35;2.25;;;26.00;58.60;;;;;;5070202;28;20124;-34
2023/04/30 12:54:40;;;;;;;4.93;2.35;;;25.90;57.70;;;;;;5068307;28;20037;-33